Terminal Aerodrome Forecast
Issued by NWS Quad Cities IA IL

Home | Current Version | Previous Version | Text Only | Print | Product List | Glossary On
Versions: 1 2 3 4 5 6 7 8 9 10 11 12 13 14 15 16 17 18 19 20 21 22 23 24 25
000
FTUS43 KDVN 261730
TAFDBQ
TAF
KDBQ 261730Z 2618/2718 17007KT P6SM SCT015 BKN050
      TEMPO 2618/2620 6SM BR BKN015
     FM262000 15008KT 5SM -SHRA VCTS SCT020 BKN035CB
      TEMPO 2621/2624 3SM TSRA BKN020CB
     FM270000 18004KT 4SM -TSRA BR OVC025CB
     FM270200 VRB04KT 4SM BR VCSH OVC012
     FM270900 04004KT 2SM BR BKN008
     FM271500 03008KT P6SM BKN020=

USA.gov is the U.S. government's official web portal to all federal, state and local government web resources and services.